Time;durP1;ratioP1;P1;durP2;ratioP2;P2;SDS_P1;SDS_P2;PMS_P1;PMS_P2;Temp;Humidity;BMP_temperature;BMP_pressure;BME280_temperature;BME280_humidity;BME280_pressure;Samples;Min_cycle;Max_cycle;Signal;HPM_P1;HPM_P2
2021/03/21 00:01:42;;;;;;;20.77;13.43;;;;;;;2.05;95.16;100806.06;5035499;28;20173;-70
2021/03/21 00:04:07;;;;;;;15.50;11.27;;;;;;;2.08;95.31;100801.59;5035370;28;20215;-70
2021/03/21 00:06:32;;;;;;;16.57;11.80;;;;;;;2.12;95.43;100791.88;5035278;28;20206;-70
2021/03/21 00:08:58;;;;;;;15.83;11.10;;;;;;;2.19;95.62;100789.09;5017294;28;20292;-70
2021/03/21 00:11:23;;;;;;;14.93;10.73;;;;;;;2.22;95.65;100782.03;5017558;28;20203;-71
2021/03/21 00:13:49;;;;;;;14.00;10.50;;;;;;;2.24;95.97;100775.00;5034942;28;20204;-70
2021/03/21 00:16:15;;;;;;;13.67;8.83;;;;;;;2.34;95.94;100782.69;5034696;28;20185;-70
2021/03/21 00:18:41;;;;;;;11.67;9.83;;;;;;;2.34;95.95;100755.47;5017218;28;20186;-69
2021/03/21 00:21:09;;;;;;;11.97;8.47;;;;;;;2.36;95.75;100759.81;5034837;28;20257;-70
2021/03/21 00:23:34;;;;;;;9.37;7.57;;;;;;;2.37;95.87;100747.50;5034859;28;20178;-70
2021/03/21 00:26:00;;;;;;;9.30;6.50;;;;;;;2.46;95.71;100749.94;5034772;28;20199;-70
2021/03/21 00:28:29;;;;;;;9.30;7.20;;;;;;;2.44;95.70;100749.09;5017252;28;20255;-70
2021/03/21 00:30:54;;;;;;;8.90;6.80;;;;;;;2.39;95.92;100733.41;5034560;28;20200;-70
2021/03/21 00:33:22;;;;;;;8.50;6.70;;;;;;;2.50;95.84;100739.28;5034634;28;20178;-70
2021/03/21 00:35:47;;;;;;;6.20;5.60;;;;;;;2.42;96.24;100727.19;5017436;28;20178;-70
2021/03/21 00:38:23;;;;;;;6.33;5.17;;;;;;;2.49;96.43;100724.38;5034617;28;20221;-69
2021/03/21 00:40:48;;;;;;;6.73;5.20;;;;;;;2.48;96.35;100722.66;5034495;28;20171;-69
2021/03/21 00:43:14;;;;;;;7.47;5.23;;;;;;;2.56;96.08;100724.25;5033916;28;20701;-69
2021/03/21 00:45:39;;;;;;;6.00;4.93;;;;;;;2.51;96.11;100727.00;5016479;28;20765;-70
2021/03/21 00:48:14;;;;;;;6.30;4.30;;;;;;;2.55;95.81;100707.56;5034320;28;20190;-69
2021/03/21 00:50:39;;;;;;;5.03;4.00;;;;;;;2.58;96.12;100717.19;5000699;28;20189;-69
2021/03/21 00:53:04;;;;;;;7.10;4.53;;;;;;;2.59;95.90;100701.34;5016949;28;20173;-68
2021/03/21 00:55:30;;;;;;;6.73;3.57;;;;;;;2.61;95.69;100707.47;5034440;28;20171;-69
2021/03/21 00:57:55;;;;;;;6.40;3.23;;;;;;;2.61;96.02;100702.19;5034742;28;20187;-70
2021/03/21 01:00:35;;;;;;;4.77;3.57;;;;;;;2.63;96.09;100684.59;5034663;28;20171;-69
2021/03/21 01:03:01;;;;;;;4.40;3.10;;;;;;;2.67;96.38;100682.75;5018021;28;20670;-69
2021/03/21 01:05:29;;;;;;;4.77;3.00;;;;;;;2.67;96.13;100680.97;5034252;28;20677;-69
2021/03/21 01:07:56;;;;;;;3.80;3.20;;;;;;;2.65;96.05;100677.50;5034831;28;20169;-70
2021/03/21 01:10:27;;;;;;;5.70;3.00;;;;;;;2.67;96.62;100678.34;5034390;28;20317;-70
2021/03/21 01:12:53;;;;;;;5.23;3.03;;;;;;;2.68;96.67;100666.91;5016823;28;20581;-69
2021/03/21 01:15:20;;;;;;;5.57;2.53;;;;;;;2.70;96.33;100661.59;5034000;28;20253;-69
2021/03/21 01:17:46;;;;;;;2.67;2.47;;;;;;;2.73;96.19;100649.19;5034028;28;20196;-69
2021/03/21 01:20:12;;;;;;;3.30;2.30;;;;;;;2.70;96.63;100651.03;5016655;28;20180;-70
2021/03/21 01:22:37;;;;;;;4.43;2.60;;;;;;;2.75;96.22;100643.88;5016651;28;20263;-70
2021/03/21 01:25:05;;;;;;;3.73;2.53;;;;;;;2.70;96.18;100633.47;5034250;28;20510;-70
2021/03/21 01:27:30;;;;;;;3.50;3.00;;;;;;;2.74;96.40;100621.94;5015925;28;20194;-70
2021/03/21 01:29:55;;;;;;;2.53;2.33;;;;;;;2.73;96.48;100628.13;5033955;28;20261;-71
2021/03/21 01:32:21;;;;;;;2.43;2.17;;;;;;;2.69;96.69;100626.47;5034140;28;20185;-70
2021/03/21 01:34:46;;;;;;;4.30;2.50;;;;;;;2.75;96.75;100618.41;5033850;28;20179;-70
2021/03/21 01:37:12;;;;;;;3.37;2.33;;;;;;;2.78;96.55;100618.31;5033797;28;20206;-70
2021/03/21 01:39:37;;;;;;;4.90;2.40;;;;;;;2.77;96.65;100607.81;5016195;28;20231;-70
2021/03/21 01:42:09;;;;;;;2.50;2.30;;;;;;;2.80;96.41;100620.91;5034115;28;20175;-70
2021/03/21 01:44:35;;;;;;;2.87;2.17;;;;;;;2.82;97.01;100596.25;5016109;28;20171;-70
2021/03/21 01:47:31;;;;;;;4.10;2.60;;;;;;;2.86;96.47;100597.03;5015780;28;20274;-70
2021/03/21 01:49:57;;;;;;;3.40;2.23;;;;;;;2.81;96.53;100593.66;5033808;28;20288;-70
2021/03/21 01:52:38;;;;;;;3.77;1.90;;;;;;;2.82;96.94;100592.75;5033950;28;20200;-70
2021/03/21 01:55:07;;;;;;;4.17;2.30;;;;;;;2.83;96.52;100582.16;5015728;28;20193;-70
2021/03/21 01:57:32;;;;;;;4.87;2.20;;;;;;;2.82;96.88;100575.16;5015746;28;20184;-70
2021/03/21 01:59:57;;;;;;;2.50;2.30;;;;;;;2.90;96.80;100590.78;5016021;28;20199;-70
2021/03/21 02:02:23;;;;;;;3.17;2.33;;;;;;;2.82;96.73;100593.63;5033657;28;20522;-70
2021/03/21 02:04:48;;;;;;;3.80;2.10;;;;;;;2.91;96.67;100581.97;5016050;28;20225;-70
2021/03/21 02:07:21;;;;;;;3.70;2.30;;;;;;;2.93;96.65;100566.09;5033165;28;20171;-70
2021/03/21 02:10:08;;;;;;;6.27;2.30;;;;;;;2.92;97.23;100559.97;5016063;28;20557;-70
2021/03/21 02:12:52;;;;;;;2.80;2.00;;;;;;;2.97;96.57;100562.47;5015873;28;20214;-69
2021/03/21 02:15:48;;;;;;;4.47;2.40;;;;;;;2.92;97.14;100559.09;5015973;28;20164;-69
2021/03/21 02:18:22;;;;;;;2.23;2.07;;;;;;;2.91;97.50;100558.25;5033533;28;20199;-69
2021/03/21 02:21:08;;;;;;;4.57;2.10;;;;;;;3.01;97.26;100548.34;5016015;28;20170;-69
2021/03/21 02:23:51;;;;;;;2.60;2.10;;;;;;;3.02;97.20;100543.03;5015627;28;20174;-69
2021/03/21 02:26:54;;;;;;;3.20;2.07;;;;;;;2.97;96.95;100536.97;5033189;28;20163;-70
2021/03/21 02:30:00;;;;;;;3.90;2.30;;;;;;;2.97;97.54;100536.13;5033730;28;20591;-70
2021/03/21 02:32:34;;;;;;;2.73;2.27;;;;;;;3.00;97.48;100522.88;5019389;28;20164;-69
2021/03/21 02:35:08;;;;;;;3.87;2.13;;;;;;;3.02;97.33;100529.84;5019314;28;20177;-69
2021/03/21 02:37:50;;;;;;;3.03;2.20;;;;;;;3.03;97.66;100514.88;5033699;28;20162;-69
2021/03/21 02:40:23;;;;;;;4.10;2.20;;;;;;;3.05;97.28;100513.94;5016106;28;20517;-69
2021/03/21 02:42:59;;;;;;;2.20;2.00;;;;;;;3.06;97.34;100514.81;5033608;28;20164;-69
2021/03/21 02:45:27;;;;;;;2.17;1.97;;;;;;;3.07;97.76;100521.81;5015809;28;20163;-69
2021/03/21 02:47:53;;;;;;;2.93;1.90;;;;;;;3.10;97.75;100514.69;5033105;28;20174;-69
2021/03/21 02:50:29;;;;;;;2.40;2.10;;;;;;;3.07;97.49;100506.84;5032951;28;20199;-68
2021/03/21 02:53:04;;;;;;;2.13;1.93;;;;;;;3.10;97.79;100500.63;5015841;28;20154;-69
2021/03/21 02:55:35;;;;;;;2.83;2.10;;;;;;;3.12;97.36;100496.19;5033432;28;20585;-70
2021/03/21 02:58:04;;;;;;;1.83;1.70;;;;;;;3.16;97.56;100484.63;4999928;28;20166;-69
2021/03/21 03:00:34;;;;;;;3.17;2.20;;;;;;;3.15;97.71;100488.19;5015336;28;20259;-69
2021/03/21 03:03:02;;;;;;;2.30;2.10;;;;;;;3.15;97.38;100488.19;5015780;28;20166;-69
2021/03/21 03:05:43;;;;;;;2.57;1.90;;;;;;;3.16;97.99;100466.16;5017662;28;20175;-69
2021/03/21 03:08:13;;;;;;;1.80;1.70;;;;;;;3.18;97.87;100474.91;5018731;28;21114;-70
2021/03/21 03:10:46;;;;;;;2.20;2.00;;;;;;;3.15;97.42;100461.81;5019709;28;20195;-70
2021/03/21 03:13:24;;;;;;;3.30;2.33;;;;;;;3.20;97.47;100459.03;5019350;28;20183;-69
2021/03/21 03:15:52;;;;;;;3.00;2.67;;;;;;;3.19;97.42;100452.03;5019025;28;20641;-69
2021/03/21 03:18:39;;;;;;;2.27;1.90;;;;;;;3.21;97.15;100453.72;5018617;28;20191;-70
2021/03/21 03:21:18;;;;;;;3.40;2.00;;;;;;;3.24;97.49;100450.13;5018487;28;20159;-70
2021/03/21 03:24:05;;;;;;;2.47;2.20;;;;;;;3.19;97.53;100452.03;5036247;28;20196;-70
2021/03/21 03:26:47;;;;;;;4.77;1.90;;;;;;;3.19;97.23;100436.19;5018157;28;20735;-70
2021/03/21 03:29:25;;;;;;;3.57;2.00;;;;;;;3.21;97.23;100445.81;5036174;28;20199;-70
2021/03/21 03:31:56;;;;;;;2.73;1.80;;;;;;;3.25;97.29;100436.88;5001601;28;20203;-69
2021/03/21 03:34:23;;;;;;;2.23;2.03;;;;;;;3.18;97.68;100430.06;5018596;28;20176;-69
2021/03/21 03:36:48;;;;;;;1.80;1.70;;;;;;;3.22;97.80;100418.50;5035935;28;20180;-69
2021/03/21 03:39:14;;;;;;;1.60;1.50;;;;;;;3.26;97.40;100421.94;5035860;28;20256;-69
2021/03/21 03:41:41;;;;;;;2.00;1.57;;;;;;;3.26;97.66;100421.94;5036120;28;20649;-69
2021/03/21 03:44:34;;;;;;;1.97;1.70;;;;;;;3.22;97.46;100405.31;5018016;28;20184;-70
2021/03/21 03:47:05;;;;;;;2.47;1.80;;;;;;;3.27;97.41;100407.81;5017910;28;20224;-69
2021/03/21 03:50:04;;;;;;;2.17;1.87;;;;;;;3.27;97.42;100406.06;5035688;28;20269;-69
2021/03/21 03:52:45;;;;;;;3.60;2.00;;;;;;;3.25;97.57;100405.22;5017824;28;20705;-69
2021/03/21 03:55:24;;;;;;;4.17;2.00;;;;;;;3.29;97.89;100420.06;5001629;28;20174;-69
2021/03/21 03:57:52;;;;;;;2.40;1.53;;;;;;;3.31;97.91;100405.03;5017872;28;20181;-69
2021/03/21 04:00:26;;;;;;;2.83;1.80;;;;;;;3.34;97.50;100407.59;5017898;28;20253;-69
2021/03/21 04:03:04;;;;;;;2.77;1.90;;;;;;;3.33;97.78;100390.03;5017925;28;20198;-69
2021/03/21 04:05:35;;;;;;;2.30;2.10;;;;;;;3.32;97.74;100411.19;5035527;28;20530;-69
2021/03/21 04:08:17;;;;;;;2.10;1.80;;;;;;;3.31;97.72;100383.09;5017473;28;20182;-70
2021/03/21 04:11:09;;;;;;;4.60;2.00;;;;;;;3.30;98.06;100391.91;5035114;28;20232;-69
2021/03/21 04:13:34;;;;;;;2.13;1.87;;;;;;;3.31;97.95;100383.94;5017594;28;20510;-69
2021/03/21 04:16:00;;;;;;;2.10;1.90;;;;;;;3.32;98.36;100372.47;5034714;28;20182;-69
2021/03/21 04:19:10;;;;;;;2.83;1.90;;;;;;;3.32;98.11;100369.84;5034805;28;20674;-69
2021/03/21 04:21:47;;;;;;;2.60;2.00;;;;;;;3.27;98.61;100369.13;4954916;29;20288;-69
2021/03/21 04:24:21;;;;;;;1.97;1.87;;;;;;;3.36;98.64;100368.88;5012635;28;20663;-69
2021/03/21 04:26:51;;;;;;;3.80;2.13;;;;;;;3.34;98.48;100369.78;5017238;28;20595;-69
2021/03/21 04:29:35;;;;;;;1.90;1.70;;;;;;;3.36;98.49;100357.44;5017763;28;20566;-69
2021/03/21 04:32:06;;;;;;;2.13;1.90;;;;;;;3.36;98.40;100363.59;5035128;28;20183;-69
2021/03/21 04:34:32;;;;;;;1.80;1.70;;;;;;;3.34;98.45;100361.88;5034439;28;20187;-69
2021/03/21 04:36:58;;;;;;;1.77;1.60;;;;;;;3.36;98.93;100360.97;5017586;28;20171;-70
2021/03/21 04:39:28;;;;;;;1.77;1.50;;;;;;;3.43;98.95;100354.56;5017426;28;20198;-69
2021/03/21 04:41:58;;;;;;;3.10;1.80;;;;;;;3.36;98.95;100352.19;5016888;28;20175;-70
2021/03/21 04:44:26;;;;;;;2.23;2.03;;;;;;;3.44;98.69;100353.66;5016908;28;20191;-70
2021/03/21 04:46:56;;;;;;;2.03;1.73;;;;;;;3.38;98.42;100368.81;5016880;28;20201;-70
2021/03/21 04:49:21;;;;;;;3.70;1.90;;;;;;;3.36;98.84;100353.03;5017099;28;20207;-69
2021/03/21 04:51:48;;;;;;;3.40;1.70;;;;;;;3.41;98.83;100347.63;5034181;28;20252;-70
2021/03/21 04:54:17;;;;;;;4.70;1.83;;;;;;;3.48;99.65;100356.19;5016612;28;20226;-70
2021/03/21 04:56:56;;;;;;;3.40;1.90;;;;;;;3.48;99.43;100364.13;5016616;28;20178;-70
2021/03/21 04:59:27;;;;;;;2.03;1.80;;;;;;;3.50;99.32;100343.81;5000147;28;20298;-70
2021/03/21 05:02:04;;;;;;;4.17;1.83;;;;;;;3.48;99.17;100337.72;5016357;28;20628;-71
2021/03/21 05:04:36;;;;;;;2.13;1.70;;;;;;;3.51;99.33;100335.00;5034361;28;20161;-70
2021/03/21 05:07:41;;;;;;;1.87;1.63;;;;;;;3.53;99.07;100343.72;5016568;28;20181;-71
2021/03/21 05:10:37;;;;;;;2.33;1.93;;;;;;;3.46;99.12;100335.13;4952598;28;20235;-72
2021/03/21 05:13:09;;;;;;;2.30;1.60;;;;;;;3.47;99.72;100326.31;5032522;28;20246;-72
2021/03/21 05:15:50;;;;;;;2.97;1.80;;;;;;;3.48;99.61;100335.09;5016187;28;20213;-72
2021/03/21 05:18:33;;;;;;;2.17;1.80;;;;;;;3.51;99.82;100329.72;5034149;28;20203;-71
2021/03/21 05:21:04;;;;;;;2.07;1.70;;;;;;;3.50;99.57;100330.63;5034366;28;20151;-71
2021/03/21 05:23:43;;;;;;;2.33;1.60;;;;;;;3.53;99.12;100335.81;5016397;28;20182;-71
2021/03/21 05:26:16;;;;;;;4.77;1.77;;;;;;;3.52;99.04;100326.16;4999831;28;20181;-71
2021/03/21 05:29:04;;;;;;;3.03;1.80;;;;;;;3.51;99.05;100327.06;4999368;28;20205;-71
2021/03/21 05:31:30;;;;;;;2.47;1.87;;;;;;;3.55;98.83;100323.41;5016256;28;20203;-70
2021/03/21 05:33:55;;;;;;;3.47;1.50;;;;;;;3.55;99.52;100328.69;5033726;28;20248;-70
2021/03/21 05:37:07;;;;;;;2.23;1.60;;;;;;;3.53;99.46;100320.84;5016082;28;20190;-70
2021/03/21 05:39:51;;;;;;;2.10;1.50;;;;;;;3.49;99.80;100335.03;5034057;28;20285;-71
2021/03/21 05:42:45;;;;;;;2.07;1.53;;;;;;;3.51;99.43;100314.75;5016027;28;20190;-71
2021/03/21 05:45:29;;;;;;;1.90;1.70;;;;;;;3.52;99.02;100320.88;5015926;28;20267;-70
2021/03/21 05:48:03;;;;;;;2.90;1.47;;;;;;;3.56;99.13;100304.91;5033559;28;20545;-70
2021/03/21 05:50:44;;;;;;;2.13;1.67;;;;;;;3.53;100.00;100319.97;5033396;28;20676;-70
2021/03/21 05:53:47;;;;;;;1.43;1.20;;;;;;;3.53;100.00;100319.97;5016308;28;20175;-70
2021/03/21 05:56:59;;;;;;;2.10;1.73;;;;;;;3.53;100.00;100319.97;5034086;28;20160;-70
2021/03/21 05:59:38;;;;;;;2.27;1.33;;;;;;;3.52;100.00;100327.03;5015278;28;20234;-71
2021/03/21 06:02:20;;;;;;;1.60;1.50;;;;;;;3.62;100.00;100324.94;5016773;28;20175;-71
2021/03/21 06:05:04;;;;;;;2.03;1.37;;;;;;;3.61;100.00;100315.31;5016409;28;20198;-71
2021/03/21 06:08:00;;;;;;;5.00;1.37;;;;;;;3.59;100.00;100310.06;5015599;28;20261;-70
2021/03/21 06:10:44;;;;;;;2.70;1.40;;;;;;;3.60;100.00;100325.00;5033590;28;20191;-71
2021/03/21 06:13:39;;;;;;;1.83;1.30;;;;;;;3.62;100.00;100306.47;5016039;28;20168;-70
2021/03/21 06:16:35;;;;;;;3.90;2.10;;;;;;;3.63;100.00;100324.03;5005160;28;20281;-70
2021/03/21 06:19:39;;;;;;;2.90;2.20;;;;;;;3.65;100.00;100335.41;5033230;28;20556;-70
2021/03/21 06:22:17;;;;;;;2.13;1.83;;;;;;;3.67;100.00;100330.94;5015695;28;20242;-70
2021/03/21 06:25:12;;;;;;;3.47;2.07;;;;;;;3.65;100.00;100320.44;5016015;28;20167;-70
2021/03/21 06:27:52;;;;;;;3.83;2.43;;;;;;;3.68;100.00;100320.31;5033045;28;20175;-70
2021/03/21 06:30:44;;;;;;;3.13;1.40;;;;;;;3.64;100.00;100331.91;5015794;28;20291;-70
2021/03/21 06:33:26;;;;;;;4.97;2.43;;;;;;;3.67;100.00;100333.56;5015669;28;20183;-70
2021/03/21 06:36:12;;;;;;;3.23;2.50;;;;;;;3.73;100.00;100338.69;5015623;28;20230;-70
2021/03/21 06:39:15;;;;;;;3.20;2.20;;;;;;;3.71;100.00;100333.41;5033725;28;20668;-71
2021/03/21 06:41:59;;;;;;;1.60;1.27;;;;;;;3.75;100.00;100321.00;5037239;28;20175;-71
2021/03/21 06:44:33;;;;;;;2.60;1.20;;;;;;;3.77;100.00;100340.31;5037549;28;20628;-71
2021/03/21 06:47:08;;;;;;;2.30;1.43;;;;;;;3.77;100.00;100340.31;5020616;28;20186;-71
2021/03/21 06:49:43;;;;;;;3.77;1.47;;;;;;;3.75;100.00;100350.91;5036974;28;20194;-71
2021/03/21 06:52:41;;;;;;;2.53;1.70;;;;;;;3.74;100.00;100341.25;5002896;28;20181;-71
2021/03/21 06:55:30;;;;;;;4.37;2.00;;;;;;;3.75;100.00;100343.00;5019255;28;20183;-71
2021/03/21 06:58:21;;;;;;;5.43;2.17;;;;;;;3.86;100.00;100341.75;5019479;28;20203;-70
2021/03/21 07:00:57;;;;;;;4.73;1.73;;;;;;;3.75;100.00;100353.56;5036521;28;20259;-70
2021/03/21 07:03:49;;;;;;;2.80;2.03;;;;;;;3.81;100.00;100356.91;5019428;28;20243;-71
2021/03/21 07:06:36;;;;;;;6.03;2.93;;;;;;;3.71;100.00;100358.94;5018897;28;20167;-71
2021/03/21 07:09:21;;;;;;;5.93;3.10;;;;;;;3.70;100.00;100351.94;5018431;28;20676;-71
2021/03/21 07:12:11;;;;;;;8.43;3.17;;;;;;;3.75;100.00;100357.97;5019006;28;20700;-72
2021/03/21 07:15:00;;;;;;;10.57;3.90;;;;;;;3.73;100.00;100349.25;5036528;28;20221;-72
2021/03/21 07:17:58;;;;;;;12.07;4.07;;;;;;;3.69;100.00;100371.34;5018533;28;20636;-71
2021/03/21 07:21:02;;;;;;;13.60;4.20;;;;;;;3.71;100.00;100356.31;5036287;28;20552;-71
2021/03/21 07:24:05;;;;;;;11.33;3.40;;;;;;;3.82;100.00;100358.63;5036455;28;20179;-71
2021/03/21 07:26:48;;;;;;;13.10;4.17;;;;;;;3.86;100.00;100360.25;5036327;28;20175;-71
2021/03/21 07:29:35;;;;;;;11.70;4.57;;;;;;;3.90;100.00;100351.31;5035665;28;20636;-70
2021/03/21 07:32:32;;;;;;;16.73;4.20;;;;;;;3.94;100.00;100337.94;5035638;28;20191;-71
2021/03/21 07:35:19;;;;;;;12.50;4.93;;;;;;;3.89;100.00;100350.44;5018292;28;20183;-69
2021/03/21 07:37:56;;;;;;;12.47;4.30;;;;;;;3.93;100.00;100354.72;5035469;28;20179;-70
2021/03/21 07:40:27;;;;;;;17.43;4.67;;;;;;;4.08;100.00;100350.69;5017908;28;20165;-70
2021/03/21 07:43:49;;;;;;;13.40;4.73;;;;;;;4.02;99.96;100359.69;5036088;28;20164;-70
2021/03/21 07:46:29;;;;;;;13.77;4.30;;;;;;;4.15;98.42;100369.84;4994919;28;20613;-70
2021/03/21 07:49:12;;;;;;;17.53;4.47;;;;;;;4.25;98.46;100364.19;4994056;28;20284;-69
2021/03/21 07:51:59;;;;;;;14.43;4.40;;;;;;;4.26;97.80;100365.91;5021587;28;20679;-72
2021/03/21 07:55:03;;;;;;;10.50;4.20;;;;;;;4.16;97.82;100368.94;5036124;28;20169;-69
2021/03/21 07:57:53;;;;;;;17.20;4.80;;;;;;;4.14;98.65;100363.69;5035442;28;20247;-70
2021/03/21 08:00:18;;;;;;;15.43;3.70;;;;;;;4.04;97.13;100357.84;5035288;28;20529;-70
2021/03/21 08:02:44;;;;;;;12.00;3.90;;;;;;;4.11;98.56;100368.22;5018047;28;20171;-69
2021/03/21 08:05:15;;;;;;;22.37;5.03;;;;;;;4.06;98.58;100371.84;5017472;28;20187;-69
2021/03/21 08:07:43;;;;;;;18.97;5.00;;;;;;;4.18;98.35;100361.81;5017598;28;20192;-69
2021/03/21 08:10:31;;;;;;;18.03;4.37;;;;;;;4.13;97.46;100361.97;5017320;28;20341;-70
2021/03/21 08:13:02;;;;;;;13.63;4.40;;;;;;;3.90;97.25;100362.72;5017506;28;20173;-70
2021/03/21 08:15:29;;;;;;;15.57;4.77;;;;;;;3.96;97.99;100380.16;5035431;28;20218;-70
2021/03/21 08:17:58;;;;;;;17.77;4.60;;;;;;;4.02;98.58;100372.88;5001358;28;20191;-70
2021/03/21 08:20:24;;;;;;;16.60;5.43;;;;;;;4.11;98.29;100369.09;5017321;28;20591;-70
2021/03/21 08:22:57;;;;;;;18.17;4.97;;;;;;;4.01;98.55;100380.84;5017326;28;20175;-70
2021/03/21 08:25:28;;;;;;;27.40;6.63;;;;;;;3.87;98.11;100376.03;5017909;28;20774;-70
2021/03/21 08:27:54;;;;;;;26.17;5.77;;;;;;;3.88;98.29;100404.16;5017091;28;20510;-70
2021/03/21 08:30:23;;;;;;;26.77;5.63;;;;;;;3.85;98.08;100406.91;5035040;28;20211;-69
2021/03/21 08:32:57;;;;;;;23.97;5.93;;;;;;;3.71;97.69;100417.88;5017431;28;20198;-70
2021/03/21 08:35:26;;;;;;;35.13;5.90;;;;;;;3.82;98.04;100411.41;5017171;28;20160;-68
2021/03/21 08:37:54;;;;;;;38.60;7.13;;;;;;;3.74;97.69;100414.31;5017258;28;20179;-70
2021/03/21 08:40:30;;;;;;;28.87;6.17;;;;;;;3.74;97.96;100406.41;5017213;28;20639;-71
2021/03/21 08:43:10;;;;;;;22.53;6.10;;;;;;;3.70;97.24;100410.00;5017003;28;20185;-71
2021/03/21 08:45:47;;;;;;;32.10;6.60;;;;;;;3.70;97.66;100407.38;5017143;28;20159;-72
2021/03/21 08:48:16;;;;;;;36.30;6.93;;;;;;;3.64;97.65;100416.34;5034791;28;20663;-71
2021/03/21 08:50:50;;;;;;;26.90;7.07;;;;;;;3.66;98.00;100416.31;5035200;28;20203;-71
2021/03/21 08:53:23;;;;;;;32.67;5.67;;;;;;;3.62;97.58;100423.44;5017388;28;20601;-71
2021/03/21 08:55:48;;;;;;;30.00;6.93;;;;;;;3.64;97.75;100418.13;5034245;28;20181;-71
2021/03/21 08:58:25;;;;;;;39.63;6.73;;;;;;;3.65;97.75;100410.16;5016675;28;20203;-71
2021/03/21 09:00:50;;;;;;;41.07;7.70;;;;;;;3.53;97.89;100423.75;5034175;28;20176;-71
2021/03/21 09:03:28;;;;;;;40.87;6.57;;;;;;;3.42;97.14;100433.78;5016657;28;20197;-71
2021/03/21 09:05:55;;;;;;;42.07;7.03;;;;;;;3.45;97.30;100408.16;5016748;28;20185;-71
2021/03/21 09:08:27;;;;;;;46.07;7.60;;;;;;;3.39;97.64;100424.19;5016886;28;20288;-71
2021/03/21 09:10:54;;;;;;;36.80;6.63;;;;;;;3.47;98.50;100438.91;5000421;28;20210;-72
2021/03/21 09:13:25;;;;;;;40.33;7.27;;;;;;;3.45;98.11;100428.41;5016877;28;20182;-72
2021/03/21 09:15:53;;;;;;;34.63;6.67;;;;;;;3.46;98.12;100430.13;5001058;28;20180;-72
2021/03/21 09:18:19;;;;;;;34.60;6.93;;;;;;;3.50;97.30;100429.13;5036274;28;20200;-71
2021/03/21 09:20:53;;;;;;;35.17;6.40;;;;;;;3.55;97.16;100429.84;5037904;28;20171;-71
2021/03/21 09:23:36;;;;;;;38.80;7.07;;;;;;;3.64;98.01;100436.59;5019991;28;20166;-71
2021/03/21 09:26:05;;;;;;;42.30;7.67;;;;;;;3.65;98.28;100436.56;5017660;28;20172;-70
2021/03/21 09:28:33;;;;;;;35.77;7.00;;;;;;;3.70;98.64;100449.59;5034062;28;20222;-71
2021/03/21 09:31:04;;;;;;;45.93;7.00;;;;;;;3.91;97.64;100448.09;5016487;28;20211;-71
2021/03/21 09:33:35;;;;;;;40.00;7.20;;;;;;;3.86;97.71;100432.41;5016531;28;20163;-71
2021/03/21 09:36:13;;;;;;;36.47;5.87;;;;;;;3.82;95.25;100449.25;5016455;28;20161;-71
2021/03/21 09:38:50;;;;;;;29.70;6.37;;;;;;;3.87;95.91;100441.19;5016600;28;20226;-70
2021/03/21 09:41:16;;;;;;;34.70;7.10;;;;;;;4.18;95.28;100446.34;5000330;28;20167;-71
2021/03/21 09:43:42;;;;;;;29.80;6.37;;;;;;;4.39;95.36;100451.75;5016269;28;20590;-71
2021/03/21 09:46:07;;;;;;;34.07;6.37;;;;;;;4.33;94.98;100461.69;5033696;28;20255;-71
2021/03/21 09:48:45;;;;;;;27.47;6.23;;;;;;;4.66;94.71;100475.53;5033754;28;20282;-71
2021/03/21 09:51:21;;;;;;;35.60;6.07;;;;;;;4.22;94.02;100477.88;5016780;28;20184;-72
2021/03/21 09:54:02;;;;;;;33.70;6.37;;;;;;;4.31;94.09;100474.94;5020997;28;20164;-71
2021/03/21 09:56:31;;;;;;;27.50;5.83;;;;;;;4.44;95.10;100483.31;5018033;28;20267;-71
2021/03/21 09:59:19;;;;;;;26.83;5.60;;;;;;;4.42;95.25;100479.88;5000062;28;20203;-71
2021/03/21 10:01:59;;;;;;;27.50;5.87;;;;;;;4.45;95.28;100487.69;5016817;28;20195;-71
2021/03/21 10:04:49;;;;;;;33.43;5.93;;;;;;;4.56;94.60;100497.91;5016752;28;20222;-71
2021/03/21 10:07:32;;;;;;;19.27;4.60;;;;;;;4.91;95.40;100489.66;5000477;28;20165;-71
2021/03/21 10:09:58;;;;;;;14.43;4.07;;;;;;;4.89;94.23;100488.84;4999188;28;20207;-72
2021/03/21 10:12:24;;;;;;;19.33;4.63;;;;;;;5.09;94.75;100489.91;4999662;28;20691;-71
2021/03/21 10:14:58;;;;;;;20.73;4.37;;;;;;;5.19;94.61;100497.44;5017418;28;20179;-70
2021/03/21 10:17:26;;;;;;;15.30;4.40;;;;;;;5.36;93.73;100495.97;5020904;28;20156;-72
2021/03/21 10:19:54;;;;;;;17.77;4.67;;;;;;;5.60;93.52;100508.31;5038368;28;20192;-73
2021/03/21 10:22:25;;;;;;;17.47;4.23;;;;;;;5.77;92.23;100505.88;5020576;28;20226;-72
2021/03/21 10:24:55;;;;;;;12.83;4.10;;;;;;;6.03;92.60;100512.88;5038012;28;20176;-71
2021/03/21 10:27:31;;;;;;;20.80;4.37;;;;;;;6.08;90.28;100505.59;5020515;28;20172;-71
2021/03/21 10:30:08;;;;;;;16.40;3.63;;;;;;;5.82;91.76;100529.53;5037786;28;20209;-72
2021/03/21 10:32:35;;;;;;;15.20;3.60;;;;;;;5.77;90.33;100520.91;5037509;28;20184;-72
2021/03/21 10:35:00;;;;;;;17.03;3.67;;;;;;;5.42;91.24;100527.50;5019836;28;20225;-72
2021/03/21 10:37:41;;;;;;;17.57;3.30;;;;;;;5.01;89.32;100514.84;5020176;28;20184;-72
2021/03/21 10:40:26;;;;;;;11.57;3.10;;;;;;;5.12;90.53;100535.63;5037337;28;20208;-73
2021/03/21 10:42:53;;;;;;;13.03;3.43;;;;;;;5.06;93.61;100540.28;5023499;28;20668;-71
2021/03/21 10:45:34;;;;;;;14.70;3.43;;;;;;;5.15;88.09;100518.78;5019417;28;20263;-72
2021/03/21 10:48:14;;;;;;;15.77;3.27;;;;;;;5.47;89.71;100544.09;5036869;28;20703;-72
2021/03/21 10:50:45;;;;;;;11.83;2.77;;;;;;;5.71;89.18;100542.34;5036925;28;20192;-72
2021/03/21 10:53:16;;;;;;;8.13;2.70;;;;;;;5.69;88.19;100538.88;5037497;28;20204;-72
2021/03/21 10:55:58;;;;;;;10.00;1.97;;;;;;;5.71;79.76;100543.19;5037296;28;20180;-72
2021/03/21 10:58:30;;;;;;;11.03;2.07;;;;;;;5.77;74.31;100535.00;5019371;28;20223;-72
2021/03/21 11:01:22;;;;;;;7.90;1.67;;;;;;;6.06;71.67;100551.63;5019222;28;20169;-71
2021/03/21 11:04:13;;;;;;;6.73;1.87;;;;;;;6.41;68.91;100536.97;5037249;28;20176;-72
2021/03/21 11:07:00;;;;;;;6.70;1.67;;;;;;;7.17;65.02;100552.34;5018724;28;20533;-72
2021/03/21 11:09:32;;;;;;;4.07;1.20;;;;;;;8.14;59.64;100552.34;5018671;28;20216;-73
2021/03/21 11:11:58;;;;;;;5.53;1.60;;;;;;;9.06;57.19;100559.38;5019276;28;20192;-72
2021/03/21 11:14:24;;;;;;;5.10;1.30;;;;;;;9.47;54.93;100540.38;5018701;28;20214;-73
2021/03/21 11:17:14;;;;;;;5.90;1.30;;;;;;;10.54;52.07;100533.56;5036396;28;20226;-72
2021/03/21 11:19:46;;;;;;;5.93;1.60;;;;;;;10.67;50.59;100541.72;5006992;28;20330;-73
2021/03/21 11:22:23;;;;;;;11.17;1.73;;;;;;;11.09;49.14;100561.50;5018785;28;20176;-73
2021/03/21 11:24:49;;;;;;;4.67;1.33;;;;;;;10.85;48.79;100545.16;5018542;28;20202;-72
2021/03/21 11:27:25;;;;;;;7.87;1.40;;;;;;;10.05;49.57;100553.25;5036098;28;20603;-72
2021/03/21 11:29:51;;;;;;;6.23;1.60;;;;;;;10.87;49.66;100572.63;5018753;28;20196;-72
2021/03/21 11:32:21;;;;;;;4.07;1.33;;;;;;;10.79;47.18;100557.03;5018382;28;20567;-71
2021/03/21 11:35:00;;;;;;;4.33;1.40;;;;;;;11.22;45.69;100566.06;5036022;28;20618;-71
2021/03/21 11:37:31;;;;;;;4.90;1.60;;;;;;;11.14;46.55;100570.09;5018368;28;20172;-73
2021/03/21 11:39:58;;;;;;;5.63;1.60;;;;;;;10.31;47.97;100534.00;5035816;28;20281;-71
2021/03/21 11:42:31;;;;;;;6.37;1.67;;;;;;;10.44;47.20;100560.88;5035999;28;20172;-72
2021/03/21 11:45:16;;;;;;;4.50;1.33;;;;;;;10.31;49.02;100580.22;5018614;28;20172;-71
2021/03/21 11:47:50;;;;;;;4.43;1.00;;;;;;;9.51;48.29;100577.44;5035855;28;20172;-70
2021/03/21 11:50:21;;;;;;;8.03;1.53;;;;;;;11.15;46.15;100591.41;5018093;28;20196;-72
2021/03/21 11:52:47;;;;;;;3.83;1.40;;;;;;;10.53;47.77;100593.22;5035859;28;20655;-72
2021/03/21 11:55:18;;;;;;;4.23;0.90;;;;;;;10.89;45.69;100606.28;5017893;28;20203;-72
2021/03/21 11:58:07;;;;;;;2.73;1.57;;;;;;;10.65;45.71;100610.34;5017722;28;20179;-71
2021/03/21 12:00:35;;;;;;;4.67;1.10;;;;;;;10.26;44.38;100602.75;5007458;28;20191;-72
2021/03/21 12:03:09;;;;;;;4.67;1.37;;;;;;;9.49;46.81;100594.44;5019475;28;20637;-74
2021/03/21 12:05:37;;;;;;;1.80;0.80;;;;;;;11.84;42.07;100608.66;5018278;28;20571;-71
2021/03/21 12:08:07;;;;;;;3.07;1.13;;;;;;;11.46;41.77;100592.22;5001004;28;20330;-71
2021/03/21 12:10:35;;;;;;;2.27;0.97;;;;;;;9.71;45.29;100587.91;5035624;28;20275;-71